Suffield, Connecticut
Current Conditions -  °F | °C
As of 3:51 AM on Thursday 23 Oct 2014 (Local Time) from KBDL Reporting Station
Overcast Overcast  
Wind Chill: 50°   Ceiling: 1600
Heat Index: 50°   Visibility: 10mi
Dew Point: 45°   Wind: 21mph
Humidity: 83%   Direction: 10°N
Pressure: 29.73"   Gusts: 29mph
Location:  41.98°N, 72.65°W
Report Text: KBDL 230751Z 01018G25KT 10SM BKN016 BKN021 OVC027 10/07 A2973 RMK AO2 PK WND 36028/0721 SLP067 T01000072
Loading
Personal Weather Stations






























Interactive Weather Map New forecast layout! Learn more

10-Day Weather Forecast

Advertisements
Track Severe Weather on mobile